sensor_id;sensor_type;location;lat;lon;timestamp;pressure;altitude;pressure_sealevel;temperature;humidity
12536;BME280;6334;48.696;2.114;2022-09-03T00:00:10;99189.91;;;20.73;78.77
12536;BME280;6334;48.696;2.114;2022-09-03T00:02:49;99188.23;;;20.75;78.82
12536;BME280;6334;48.696;2.114;2022-09-03T00:05:25;99185.59;;;20.71;78.69
12536;BME280;6334;48.696;2.114;2022-09-03T00:08:43;99189.89;;;20.50;79.23
12536;BME280;6334;48.696;2.114;2022-09-03T00:13:06;99192.64;;;20.43;79.62
12536;BME280;6334;48.696;2.114;2022-09-03T00:15:38;99184.72;;;20.33;79.99
12536;BME280;6334;48.696;2.114;2022-09-03T00:18:18;99184.13;;;20.27;80.45
12536;BME280;6334;48.696;2.114;2022-09-03T00:20:44;99182.55;;;20.38;80.39
12536;BME280;6334;48.696;2.114;2022-09-03T00:23:18;99178.77;;;20.31;80.86
12536;BME280;6334;48.696;2.114;2022-09-03T00:25:51;99180.39;;;20.55;79.65
12536;BME280;6334;48.696;2.114;2022-09-03T00:28:21;99176.19;;;20.80;78.79
12536;BME280;6334;48.696;2.114;2022-09-03T00:30:50;99183.68;;;20.67;79.68
12536;BME280;6334;48.696;2.114;2022-09-03T00:33:21;99179.83;;;20.81;79.41
12536;BME280;6334;48.696;2.114;2022-09-03T00:38:31;99174.90;;;20.44;80.66
12536;BME280;6334;48.696;2.114;2022-09-03T00:41:42;99175.00;;;20.54;80.92
12536;BME280;6334;48.696;2.114;2022-09-03T00:44:02;99174.34;;;20.49;80.96
12536;BME280;6334;48.696;2.114;2022-09-03T00:46:54;99175.40;;;20.63;81.10
12536;BME280;6334;48.696;2.114;2022-09-03T00:49:36;99176.54;;;20.68;80.10
12536;BME280;6334;48.696;2.114;2022-09-03T00:57:18;99181.94;;;20.30;82.18
12536;BME280;6334;48.696;2.114;2022-09-03T00:59:51;99187.19;;;20.19;82.98
12536;BME280;6334;48.696;2.114;2022-09-03T01:07:45;99181.56;;;20.00;84.23
12536;BME280;6334;48.696;2.114;2022-09-03T01:13:13;99182.34;;;20.24;83.88
12536;BME280;6334;48.696;2.114;2022-09-03T01:22:00;99056.47;;;19.39;84.57
12536;BME280;6334;48.696;2.114;2022-09-03T01:30:11;99183.41;;;19.91;86.09
12536;BME280;6334;48.696;2.114;2022-09-03T01:32:43;99183.28;;;19.61;87.69
12536;BME280;6334;48.696;2.114;2022-09-03T01:35:12;99179.17;;;19.75;87.07
12536;BME280;6334;48.696;2.114;2022-09-03T01:38:01;99180.45;;;19.79;87.20
12536;BME280;6334;48.696;2.114;2022-09-03T01:40:37;99179.91;;;19.83;87.21
12536;BME280;6334;48.696;2.114;2022-09-03T01:43:29;99178.44;;;20.10;86.57
12536;BME280;6334;48.696;2.114;2022-09-03T01:46:01;99180.98;;;20.11;86.49
12536;BME280;6334;48.696;2.114;2022-09-03T01:48:33;99183.70;;;20.01;87.40
12536;BME280;6334;48.696;2.114;2022-09-03T01:59:22;99183.89;;;19.80;88.12
12536;BME280;6334;48.696;2.114;2022-09-03T02:01:57;99185.24;;;19.87;88.14
12536;BME280;6334;48.696;2.114;2022-09-03T02:04:25;99181.02;;;19.63;89.63
12536;BME280;6334;48.696;2.114;2022-09-03T02:06:56;99177.34;;;19.76;89.43
12536;BME280;6334;48.696;2.114;2022-09-03T02:09:26;99177.92;;;19.81;90.14
12536;BME280;6334;48.696;2.114;2022-09-03T02:12:02;99181.70;;;19.82;89.09
12536;BME280;6334;48.696;2.114;2022-09-03T02:14:30;99178.48;;;19.76;89.72
12536;BME280;6334;48.696;2.114;2022-09-03T02:17:00;99179.62;;;19.74;89.59
12536;BME280;6334;48.696;2.114;2022-09-03T02:19:31;99172.41;;;19.70;89.44
12536;BME280;6334;48.696;2.114;2022-09-03T02:22:01;99173.23;;;19.87;89.66
12536;BME280;6334;48.696;2.114;2022-09-03T02:24:32;99178.00;;;19.99;88.92
12536;BME280;6334;48.696;2.114;2022-09-03T02:27:02;99178.02;;;19.86;89.15
12536;BME280;6334;48.696;2.114;2022-09-03T02:29:33;99174.77;;;19.79;89.40
12536;BME280;6334;48.696;2.114;2022-09-03T02:32:03;99179.98;;;19.57;90.52
12536;BME280;6334;48.696;2.114;2022-09-03T02:34:34;99181.11;;;19.76;89.83
12536;BME280;6334;48.696;2.114;2022-09-03T02:37:10;99180.08;;;19.83;89.32
12536;BME280;6334;48.696;2.114;2022-09-03T02:39:35;99180.07;;;19.73;90.58
12536;BME280;6334;48.696;2.114;2022-09-03T02:42:05;99180.56;;;19.72;89.79
12536;BME280;6334;48.696;2.114;2022-09-03T02:44:36;99182.11;;;19.60;90.50
12536;BME280;6334;48.696;2.114;2022-09-03T02:47:06;99178.59;;;19.85;90.83
12536;BME280;6334;48.696;2.114;2022-09-03T02:49:36;99181.91;;;19.77;90.17
12536;BME280;6334;48.696;2.114;2022-09-03T02:52:08;99167.20;;;19.46;90.71
12536;BME280;6334;48.696;2.114;2022-09-03T02:54:38;99183.28;;;19.78;90.75
12536;BME280;6334;48.696;2.114;2022-09-03T02:57:08;99181.66;;;19.49;91.63
12536;BME280;6334;48.696;2.114;2022-09-03T02:59:38;99130.56;;;19.46;91.76
12536;BME280;6334;48.696;2.114;2022-09-03T03:02:09;99187.37;;;19.48;92.26
12536;BME280;6334;48.696;2.114;2022-09-03T03:04:39;99184.70;;;19.27;93.57
12536;BME280;6334;48.696;2.114;2022-09-03T03:07:10;99185.16;;;19.68;91.55
12536;BME280;6334;48.696;2.114;2022-09-03T03:09:40;99187.69;;;19.48;92.64
12536;BME280;6334;48.696;2.114;2022-09-03T03:12:11;99186.53;;;19.72;91.56
12536;BME280;6334;48.696;2.114;2022-09-03T03:14:41;99184.05;;;19.50;92.05
12536;BME280;6334;48.696;2.114;2022-09-03T03:17:11;99179.05;;;19.66;91.77
12536;BME280;6334;48.696;2.114;2022-09-03T03:19:42;99184.89;;;19.50;92.63
12536;BME280;6334;48.696;2.114;2022-09-03T03:22:12;99183.49;;;19.78;91.65
12536;BME280;6334;48.696;2.114;2022-09-03T03:24:43;99181.98;;;19.72;91.45
12536;BME280;6334;48.696;2.114;2022-09-03T03:27:13;99186.78;;;19.76;91.69
12536;BME280;6334;48.696;2.114;2022-09-03T03:29:44;99187.11;;;19.44;93.92
12536;BME280;6334;48.696;2.114;2022-09-03T03:32:14;99184.01;;;19.39;92.95
12536;BME280;6334;48.696;2.114;2022-09-03T03:34:45;99181.38;;;19.42;93.97
12536;BME280;6334;48.696;2.114;2022-09-03T03:37:15;99180.46;;;19.31;93.87
12536;BME280;6334;48.696;2.114;2022-09-03T03:39:46;99183.17;;;19.28;93.79
12536;BME280;6334;48.696;2.114;2022-09-03T03:42:16;99175.98;;;19.06;94.70
12536;BME280;6334;48.696;2.114;2022-09-03T03:44:47;99179.72;;;19.11;94.59
12536;BME280;6334;48.696;2.114;2022-09-03T03:47:17;99174.02;;;19.15;95.00
12536;BME280;6334;48.696;2.114;2022-09-03T03:49:47;99182.69;;;19.18;95.47
12536;BME280;6334;48.696;2.114;2022-09-03T03:52:18;99178.52;;;19.27;93.88
12536;BME280;6334;48.696;2.114;2022-09-03T03:54:48;99177.70;;;19.17;94.60
12536;BME280;6334;48.696;2.114;2022-09-03T03:57:19;99174.81;;;19.20;94.53
12536;BME280;6334;48.696;2.114;2022-09-03T03:59:49;99181.91;;;18.96;95.79
12536;BME280;6334;48.696;2.114;2022-09-03T04:02:20;99172.16;;;19.20;93.87
12536;BME280;6334;48.696;2.114;2022-09-03T04:04:50;99172.25;;;19.29;93.92
12536;BME280;6334;48.696;2.114;2022-09-03T04:07:21;99174.68;;;19.08;94.41
12536;BME280;6334;48.696;2.114;2022-09-03T04:09:51;99165.41;;;18.87;95.72
12536;BME280;6334;48.696;2.114;2022-09-03T04:12:21;99169.87;;;18.95;95.35
12536;BME280;6334;48.696;2.114;2022-09-03T04:14:51;99175.97;;;18.95;95.35
12536;BME280;6334;48.696;2.114;2022-09-03T04:17:22;99174.71;;;19.18;94.62
12536;BME280;6334;48.696;2.114;2022-09-03T04:19:52;99175.86;;;19.02;95.13
12536;BME280;6334;48.696;2.114;2022-09-03T04:22:23;99173.97;;;18.91;95.87
12536;BME280;6334;48.696;2.114;2022-09-03T04:24:53;99161.03;;;18.97;95.43
12536;BME280;6334;48.696;2.114;2022-09-03T04:27:24;99170.50;;;18.77;96.12
12536;BME280;6334;48.696;2.114;2022-09-03T04:29:54;99172.41;;;18.82;97.05
12536;BME280;6334;48.696;2.114;2022-09-03T04:32:25;99172.43;;;18.75;97.77
12536;BME280;6334;48.696;2.114;2022-09-03T04:35:13;99176.15;;;18.61;98.70
12536;BME280;6334;48.696;2.114;2022-09-03T04:37:44;99172.83;;;18.53;99.83
12536;BME280;6334;48.696;2.114;2022-09-03T04:40:14;99176.16;;;18.77;97.69
12536;BME280;6334;48.696;2.114;2022-09-03T04:42:45;99173.34;;;18.73;98.29
12536;BME280;6334;48.696;2.114;2022-09-03T04:45:15;99177.14;;;18.58;98.57
12536;BME280;6334;48.696;2.114;2022-09-03T04:47:54;99176.31;;;18.61;99.31
12536;BME280;6334;48.696;2.114;2022-09-03T04:50:16;99181.10;;;18.67;97.83
12536;BME280;6334;48.696;2.114;2022-09-03T04:52:47;99184.72;;;18.81;97.21
12536;BME280;6334;48.696;2.114;2022-09-03T04:55:17;99181.58;;;18.87;97.13
12536;BME280;6334;48.696;2.114;2022-09-03T04:57:47;99178.83;;;18.80;96.84
12536;BME280;6334;48.696;2.114;2022-09-03T05:00:18;99179.67;;;19.08;95.62
12536;BME280;6334;48.696;2.114;2022-09-03T05:02:48;99182.77;;;18.79;96.62
12536;BME280;6334;48.696;2.114;2022-09-03T05:05:19;99185.39;;;18.70;98.08
12536;BME280;6334;48.696;2.114;2022-09-03T05:07:49;99181.99;;;18.77;98.25
12536;BME280;6334;48.696;2.114;2022-09-03T05:10:20;99183.20;;;18.66;97.83
12536;BME280;6334;48.696;2.114;2022-09-03T05:13:03;99186.64;;;18.59;97.91
12536;BME280;6334;48.696;2.114;2022-09-03T05:15:32;99191.01;;;18.69;97.22
12536;BME280;6334;48.696;2.114;2022-09-03T05:18:02;99191.36;;;18.54;98.35
12536;BME280;6334;48.696;2.114;2022-09-03T05:20:33;99191.39;;;18.47;99.48
12536;BME280;6334;48.696;2.114;2022-09-03T05:23:04;99196.34;;;18.41;100.00
12536;BME280;6334;48.696;2.114;2022-09-03T05:25:34;99192.08;;;18.46;100.00
12536;BME280;6334;48.696;2.114;2022-09-03T05:28:04;99195.83;;;18.35;100.00
12536;BME280;6334;48.696;2.114;2022-09-03T05:30:35;99196.14;;;18.53;100.00
12536;BME280;6334;48.696;2.114;2022-09-03T05:33:05;99197.76;;;18.38;100.00
12536;BME280;6334;48.696;2.114;2022-09-03T05:35:36;99198.52;;;18.44;100.00
12536;BME280;6334;48.696;2.114;2022-09-03T05:38:06;99196.62;;;18.41;100.00
12536;BME280;6334;48.696;2.114;2022-09-03T05:40:36;99199.77;;;18.75;100.00
12536;BME280;6334;48.696;2.114;2022-09-03T05:43:07;99206.21;;;18.60;99.76
12536;BME280;6334;48.696;2.114;2022-09-03T05:45:37;99208.04;;;18.60;99.55
12536;BME280;6334;48.696;2.114;2022-09-03T05:48:08;99214.64;;;18.82;99.76
12536;BME280;6334;48.696;2.114;2022-09-03T05:50:38;99216.80;;;18.66;98.92
12536;BME280;6334;48.696;2.114;2022-09-03T05:53:09;99223.24;;;18.82;97.79
12536;BME280;6334;48.696;2.114;2022-09-03T05:55:39;99227.10;;;18.88;98.11
12536;BME280;6334;48.696;2.114;2022-09-03T05:58:10;99224.50;;;18.69;98.79
12536;BME280;6334;48.696;2.114;2022-09-03T06:00:40;99230.32;;;19.01;98.08
12536;BME280;6334;48.696;2.114;2022-09-03T06:03:11;99236.64;;;18.87;97.95
12536;BME280;6334;48.696;2.114;2022-09-03T06:05:51;99235.78;;;18.73;98.61
12536;BME280;6334;48.696;2.114;2022-09-03T06:08:11;99235.95;;;18.66;99.53
12536;BME280;6334;48.696;2.114;2022-09-03T06:10:42;99236.98;;;18.82;99.32
12536;BME280;6334;48.696;2.114;2022-09-03T06:13:12;99241.77;;;18.81;98.20
12536;BME280;6334;48.696;2.114;2022-09-03T06:15:43;99243.69;;;18.70;98.99
12536;BME280;6334;48.696;2.114;2022-09-03T06:18:13;99241.03;;;18.60;100.00
12536;BME280;6334;48.696;2.114;2022-09-03T06:20:52;99237.35;;;18.43;100.00
12536;BME280;6334;48.696;2.114;2022-09-03T06:23:14;99238.50;;;18.63;100.00
12536;BME280;6334;48.696;2.114;2022-09-03T06:25:45;99236.73;;;18.82;98.86
12536;BME280;6334;48.696;2.114;2022-09-03T06:28:15;99240.44;;;18.79;98.58
12536;BME280;6334;48.696;2.114;2022-09-03T06:30:46;99242.50;;;18.80;98.56
12536;BME280;6334;48.696;2.114;2022-09-03T06:33:15;99242.92;;;18.69;99.42
12536;BME280;6334;48.696;2.114;2022-09-03T06:35:46;99243.50;;;18.63;99.97
12536;BME280;6334;48.696;2.114;2022-09-03T06:38:16;99248.73;;;19.06;97.49
12536;BME280;6334;48.696;2.114;2022-09-03T06:40:50;99244.88;;;19.14;97.36
12536;BME280;6334;48.696;2.114;2022-09-03T06:43:17;99245.42;;;19.05;98.25
12536;BME280;6334;48.696;2.114;2022-09-03T06:46:00;99246.47;;;18.93;98.33
12536;BME280;6334;48.696;2.114;2022-09-03T06:48:29;99248.58;;;18.92;98.48
12536;BME280;6334;48.696;2.114;2022-09-03T06:51:00;99250.62;;;18.74;99.46
12536;BME280;6334;48.696;2.114;2022-09-03T06:53:30;99251.14;;;18.72;99.28
12536;BME280;6334;48.696;2.114;2022-09-03T06:56:01;99245.87;;;18.86;99.10
12536;BME280;6334;48.696;2.114;2022-09-03T06:58:32;99246.17;;;19.44;97.18
12536;BME280;6334;48.696;2.114;2022-09-03T07:01:02;99249.19;;;19.11;97.47
12536;BME280;6334;48.696;2.114;2022-09-03T07:03:32;99245.94;;;19.31;96.48
12536;BME280;6334;48.696;2.114;2022-09-03T07:06:06;99242.05;;;18.86;98.90
12536;BME280;6334;48.696;2.114;2022-09-03T07:08:35;99248.64;;;19.08;97.67
12536;BME280;6334;48.696;2.114;2022-09-03T07:11:06;99246.95;;;18.85;99.09
12536;BME280;6334;48.696;2.114;2022-09-03T07:13:37;99248.78;;;19.16;98.99
12536;BME280;6334;48.696;2.114;2022-09-03T07:16:08;99257.17;;;19.33;97.59
12536;BME280;6334;48.696;2.114;2022-09-03T07:18:37;99260.45;;;19.66;96.22
12536;BME280;6334;48.696;2.114;2022-09-03T07:21:08;99265.02;;;19.13;97.77
12536;BME280;6334;48.696;2.114;2022-09-03T07:23:38;99265.89;;;19.46;96.09
12536;BME280;6334;48.696;2.114;2022-09-03T07:26:11;99187.50;;;19.10;95.80
12536;BME280;6334;48.696;2.114;2022-09-03T07:28:39;99271.26;;;19.65;95.19
12536;BME280;6334;48.696;2.114;2022-09-03T07:31:11;99249.84;;;19.53;95.94
12536;BME280;6334;48.696;2.114;2022-09-03T07:33:40;99282.94;;;19.35;97.11
12536;BME280;6334;48.696;2.114;2022-09-03T07:36:11;99268.34;;;19.19;98.57
12536;BME280;6334;48.696;2.114;2022-09-03T07:38:41;99284.49;;;19.46;98.03
12536;BME280;6334;48.696;2.114;2022-09-03T07:41:11;99281.19;;;19.25;98.58
12536;BME280;6334;48.696;2.114;2022-09-03T07:43:42;99281.72;;;19.57;97.65
12536;BME280;6334;48.696;2.114;2022-09-03T07:46:20;99281.02;;;19.65;97.28
12536;BME280;6334;48.696;2.114;2022-09-03T07:48:55;99290.68;;;20.10;94.71
12536;BME280;6334;48.696;2.114;2022-09-03T07:51:25;99298.61;;;19.60;96.44
12536;BME280;6334;48.696;2.114;2022-09-03T07:53:56;99287.85;;;19.65;96.28
12536;BME280;6334;48.696;2.114;2022-09-03T07:56:25;99286.79;;;19.85;95.00
12536;BME280;6334;48.696;2.114;2022-09-03T07:58:58;99289.39;;;20.07;93.96
12536;BME280;6334;48.696;2.114;2022-09-03T08:01:29;99214.81;;;19.67;93.64
12536;BME280;6334;48.696;2.114;2022-09-03T08:03:59;99294.65;;;19.90;94.43
12536;BME280;6334;48.696;2.114;2022-09-03T08:06:30;99177.20;;;19.38;93.79
12536;BME280;6334;48.696;2.114;2022-09-03T08:09:02;99302.03;;;19.63;95.87
12536;BME280;6334;48.696;2.114;2022-09-03T08:11:35;99305.69;;;20.03;95.48
12536;BME280;6334;48.696;2.114;2022-09-03T08:14:02;99304.09;;;20.07;94.36
12536;BME280;6334;48.696;2.114;2022-09-03T08:16:39;99305.73;;;20.52;93.03
12536;BME280;6334;48.696;2.114;2022-09-03T08:19:05;99311.27;;;20.59;92.33
12536;BME280;6334;48.696;2.114;2022-09-03T08:21:35;99321.58;;;20.47;92.59
12536;BME280;6334;48.696;2.114;2022-09-03T08:24:06;99318.12;;;20.53;91.56
12536;BME280;6334;48.696;2.114;2022-09-03T08:26:37;99323.69;;;20.00;94.06
12536;BME280;6334;48.696;2.114;2022-09-03T08:29:07;99323.38;;;20.35;93.17
12536;BME280;6334;48.696;2.114;2022-09-03T08:31:37;99325.35;;;20.15;93.44
12536;BME280;6334;48.696;2.114;2022-09-03T08:34:07;99331.68;;;20.56;92.10
12536;BME280;6334;48.696;2.114;2022-09-03T08:36:38;99334.39;;;20.66;91.51
12536;BME280;6334;48.696;2.114;2022-09-03T08:39:09;99337.50;;;20.11;93.47
12536;BME280;6334;48.696;2.114;2022-09-03T08:42:12;99342.70;;;20.29;93.23
12536;BME280;6334;48.696;2.114;2022-09-03T08:44:43;99342.64;;;20.82;91.22
12536;BME280;6334;48.696;2.114;2022-09-03T08:52:36;99358.88;;;20.13;93.81
12536;BME280;6334;48.696;2.114;2022-09-03T08:57:54;99361.64;;;20.11;94.25
12536;BME280;6334;48.696;2.114;2022-09-03T09:00:21;99366.45;;;20.42;92.89
12536;BME280;6334;48.696;2.114;2022-09-03T09:05:28;99363.69;;;20.70;91.59
12536;BME280;6334;48.696;2.114;2022-09-03T09:08:02;99361.05;;;20.85;90.84
12536;BME280;6334;48.696;2.114;2022-09-03T09:10:38;99362.15;;;20.96;89.74
12536;BME280;6334;48.696;2.114;2022-09-03T09:13:21;99364.34;;;21.00;89.67
12536;BME280;6334;48.696;2.114;2022-09-03T09:23:39;99372.45;;;20.63;91.32
12536;BME280;6334;48.696;2.114;2022-09-03T09:26:11;99369.64;;;20.53;91.65
12536;BME280;6334;48.696;2.114;2022-09-03T09:28:40;99377.11;;;20.61;91.29
12536;BME280;6334;48.696;2.114;2022-09-03T09:31:16;99380.72;;;20.57;91.24
12536;BME280;6334;48.696;2.114;2022-09-03T09:33:41;99382.56;;;20.59;92.30
12536;BME280;6334;48.696;2.114;2022-09-03T09:36:13;99381.47;;;20.53;92.36
12536;BME280;6334;48.696;2.114;2022-09-03T09:38:42;99384.24;;;20.60;92.09
12536;BME280;6334;48.696;2.114;2022-09-03T09:41:15;99381.41;;;20.38;92.68
12536;BME280;6334;48.696;2.114;2022-09-03T09:43:57;99284.92;;;19.98;92.02
12536;BME280;6334;48.696;2.114;2022-09-03T09:46:24;99386.81;;;20.61;92.19
12536;BME280;6334;48.696;2.114;2022-09-03T09:48:52;99363.72;;;19.84;95.19
12536;BME280;6334;48.696;2.114;2022-09-03T09:51:26;99329.84;;;19.93;94.64
12536;BME280;6334;48.696;2.114;2022-09-03T09:54:14;99390.32;;;20.21;94.55
12536;BME280;6334;48.696;2.114;2022-09-03T09:56:42;99388.73;;;20.49;93.47
12536;BME280;6334;48.696;2.114;2022-09-03T09:59:13;99391.54;;;20.45;94.13
12536;BME280;6334;48.696;2.114;2022-09-03T10:01:43;99388.49;;;20.46;94.15
12536;BME280;6334;48.696;2.114;2022-09-03T10:04:23;99300.64;;;20.28;92.28
12536;BME280;6334;48.696;2.114;2022-09-03T10:06:53;99390.83;;;20.76;92.40
12536;BME280;6334;48.696;2.114;2022-09-03T10:09:27;99388.42;;;20.59;92.58
12536;BME280;6334;48.696;2.114;2022-09-03T10:12:23;99392.10;;;21.03;90.64
12536;BME280;6334;48.696;2.114;2022-09-03T10:20:18;99397.01;;;21.05;89.69
12536;BME280;6334;48.696;2.114;2022-09-03T10:22:54;99391.20;;;21.06;89.78
12536;BME280;6334;48.696;2.114;2022-09-03T10:25:41;99392.73;;;21.05;89.81
12536;BME280;6334;48.696;2.114;2022-09-03T10:28:08;99397.14;;;21.02;89.70
12536;BME280;6334;48.696;2.114;2022-09-03T10:33:28;99390.06;;;21.05;94.37
12536;BME280;6334;48.696;2.114;2022-09-03T10:35:59;99384.93;;;21.36;91.02
12536;BME280;6334;48.696;2.114;2022-09-03T10:38:28;99391.28;;;21.11;95.52
12536;BME280;6334;48.696;2.114;2022-09-03T10:43:41;99385.85;;;21.84;91.76
12536;BME280;6334;48.696;2.114;2022-09-03T10:46:10;99383.75;;;21.72;92.20
12536;BME280;6334;48.696;2.114;2022-09-03T10:48:52;99394.96;;;21.57;92.10
12536;BME280;6334;48.696;2.114;2022-09-03T11:07:41;99361.80;;;20.54;93.04
12536;BME280;6334;48.696;2.114;2022-09-03T11:12:51;99387.20;;;20.69;92.43
12536;BME280;6334;48.696;2.114;2022-09-03T11:15:41;99391.05;;;20.69;92.98
12536;BME280;6334;48.696;2.114;2022-09-03T11:21:13;99392.00;;;20.85;90.65
12536;BME280;6334;48.696;2.114;2022-09-03T11:23:44;99386.58;;;21.15;90.87
12536;BME280;6334;48.696;2.114;2022-09-03T11:26:15;99394.02;;;21.43;90.40
12536;BME280;6334;48.696;2.114;2022-09-03T11:29:07;99393.20;;;21.64;88.11
12536;BME280;6334;48.696;2.114;2022-09-03T11:34:44;99394.37;;;21.79;88.92
12536;BME280;6334;48.696;2.114;2022-09-03T11:37:20;99394.36;;;21.15;89.63
12536;BME280;6334;48.696;2.114;2022-09-03T11:40:12;99392.14;;;21.09;90.52
12536;BME280;6334;48.696;2.114;2022-09-03T11:42:40;99398.06;;;20.81;92.24
12536;BME280;6334;48.696;2.114;2022-09-03T11:45:21;99400.93;;;20.66;93.32
12536;BME280;6334;48.696;2.114;2022-09-03T11:47:50;99406.69;;;20.40;96.86
12536;BME280;6334;48.696;2.114;2022-09-03T11:50:30;99350.56;;;19.81;99.58
12536;BME280;6334;48.696;2.114;2022-09-03T11:53:09;99401.69;;;20.65;99.88
12536;BME280;6334;48.696;2.114;2022-09-03T11:55:54;99394.92;;;20.53;99.35
12536;BME280;6334;48.696;2.114;2022-09-03T11:58:29;99397.20;;;20.83;98.49
12536;BME280;6334;48.696;2.114;2022-09-03T12:01:00;99397.74;;;21.25;98.12
12536;BME280;6334;48.696;2.114;2022-09-03T12:06:30;99362.78;;;21.58;96.85
12536;BME280;6334;48.696;2.114;2022-09-03T12:12:11;99388.16;;;21.38;97.98
12536;BME280;6334;48.696;2.114;2022-09-03T12:15:05;99391.22;;;21.07;97.28
12536;BME280;6334;48.696;2.114;2022-09-03T12:20:02;99348.53;;;20.78;96.55
12536;BME280;6334;48.696;2.114;2022-09-03T12:22:35;99391.87;;;21.37;96.76
12536;BME280;6334;48.696;2.114;2022-09-03T12:25:11;99388.09;;;21.33;93.45
12536;BME280;6334;48.696;2.114;2022-09-03T12:27:39;99389.23;;;21.47;95.13
12536;BME280;6334;48.696;2.114;2022-09-03T12:30:18;99395.00;;;21.63;92.53
12536;BME280;6334;48.696;2.114;2022-09-03T12:32:45;99403.88;;;21.71;92.62
12536;BME280;6334;48.696;2.114;2022-09-03T12:35:17;99400.28;;;21.64;91.34
12536;BME280;6334;48.696;2.114;2022-09-03T12:37:46;99397.91;;;21.75;89.64
12536;BME280;6334;48.696;2.114;2022-09-03T12:40:21;99357.59;;;21.21;86.77
12536;BME280;6334;48.696;2.114;2022-09-03T12:42:50;99404.78;;;21.39;86.18
12536;BME280;6334;48.696;2.114;2022-09-03T12:45:22;99407.23;;;21.50;86.25
12536;BME280;6334;48.696;2.114;2022-09-03T12:47:51;99405.58;;;21.86;86.54
12536;BME280;6334;48.696;2.114;2022-09-03T12:50:22;99410.54;;;21.80;85.39
12536;BME280;6334;48.696;2.114;2022-09-03T12:52:58;99413.63;;;21.62;85.75
12536;BME280;6334;48.696;2.114;2022-09-03T12:58:11;99418.88;;;21.66;85.67
12536;BME280;6334;48.696;2.114;2022-09-03T13:00:44;99416.97;;;21.61;86.59
12536;BME280;6334;48.696;2.114;2022-09-03T13:03:26;99417.81;;;21.57;87.18
12536;BME280;6334;48.696;2.114;2022-09-03T13:05:53;99418.05;;;21.46;88.55
12536;BME280;6334;48.696;2.114;2022-09-03T13:09:02;99414.86;;;21.26;90.17
12536;BME280;6334;48.696;2.114;2022-09-03T13:11:03;99412.91;;;21.47;89.09
12536;BME280;6334;48.696;2.114;2022-09-03T13:13:34;99417.05;;;21.68;87.40
12536;BME280;6334;48.696;2.114;2022-09-03T13:25:25;99421.89;;;22.74;82.65
12536;BME280;6334;48.696;2.114;2022-09-03T13:38:45;99414.29;;;22.27;82.11
12536;BME280;6334;48.696;2.114;2022-09-03T13:44:33;99413.56;;;22.57;81.66
12536;BME280;6334;48.696;2.114;2022-09-03T13:47:25;99414.09;;;22.18;81.66
12536;BME280;6334;48.696;2.114;2022-09-03T13:49:57;99411.78;;;22.14;80.68
12536;BME280;6334;48.696;2.114;2022-09-03T13:55:24;99387.81;;;22.48;79.74
12536;BME280;6334;48.696;2.114;2022-09-03T13:57:57;99406.70;;;23.28;79.18
12536;BME280;6334;48.696;2.114;2022-09-03T14:06:19;99406.27;;;22.90;77.89
12536;BME280;6334;48.696;2.114;2022-09-03T14:11:55;99402.64;;;23.23;77.85
12536;BME280;6334;48.696;2.114;2022-09-03T14:25:33;99405.08;;;23.14;78.47
12536;BME280;6334;48.696;2.114;2022-09-03T14:28:28;99402.59;;;23.28;78.34
12536;BME280;6334;48.696;2.114;2022-09-03T14:33:56;99403.95;;;22.88;79.19
12536;BME280;6334;48.696;2.114;2022-09-03T14:36:53;99406.17;;;23.21;78.37
12536;BME280;6334;48.696;2.114;2022-09-03T14:39:46;99396.38;;;22.99;78.43
12536;BME280;6334;48.696;2.114;2022-09-03T14:47:47;99403.59;;;23.34;77.34
12536;BME280;6334;48.696;2.114;2022-09-03T14:53:16;99401.12;;;23.57;75.56
12536;BME280;6334;48.696;2.114;2022-09-03T14:58:32;99408.89;;;23.68;76.20
12536;BME280;6334;48.696;2.114;2022-09-03T15:01:02;99403.55;;;23.73;74.68
12536;BME280;6334;48.696;2.114;2022-09-03T15:03:41;99405.77;;;23.40;74.51
12536;BME280;6334;48.696;2.114;2022-09-03T15:09:14;99399.81;;;23.84;73.81
12536;BME280;6334;48.696;2.114;2022-09-03T15:11:46;99404.13;;;23.41;71.46
12536;BME280;6334;48.696;2.114;2022-09-03T15:14:34;99409.21;;;23.40;71.45
12536;BME280;6334;48.696;2.114;2022-09-03T15:31:21;99401.41;;;23.40;69.38
12536;BME280;6334;48.696;2.114;2022-09-03T15:36:33;99413.63;;;23.35;68.91
12536;BME280;6334;48.696;2.114;2022-09-03T15:38:59;99413.72;;;23.51;69.29
12536;BME280;6334;48.696;2.114;2022-09-03T15:41:34;99410.44;;;23.53;68.15
12536;BME280;6334;48.696;2.114;2022-09-03T15:44:02;99420.03;;;23.46;69.17
12536;BME280;6334;48.696;2.114;2022-09-03T15:46:51;99414.52;;;23.17;68.27
12536;BME280;6334;48.696;2.114;2022-09-03T15:49:34;99412.30;;;23.15;69.20
12536;BME280;6334;48.696;2.114;2022-09-03T15:52:27;99381.34;;;22.93;69.06
12536;BME280;6334;48.696;2.114;2022-09-03T15:57:41;99411.83;;;23.52;67.82
12536;BME280;6334;48.696;2.114;2022-09-03T16:00:15;99404.60;;;23.27;67.04
12536;BME280;6334;48.696;2.114;2022-09-03T16:02:57;99413.98;;;23.49;68.05
12536;BME280;6334;48.696;2.114;2022-09-03T16:05:46;99412.70;;;23.57;67.86
12536;BME280;6334;48.696;2.114;2022-09-03T16:08:28;99416.63;;;23.49;67.10
12536;BME280;6334;48.696;2.114;2022-09-03T16:11:35;99416.88;;;23.47;65.87
12536;BME280;6334;48.696;2.114;2022-09-03T16:14:08;99412.61;;;23.31;66.76
12536;BME280;6334;48.696;2.114;2022-09-03T16:22:35;99418.12;;;23.25;67.06
12536;BME280;6334;48.696;2.114;2022-09-03T16:25:03;99417.45;;;23.31;66.08
12536;BME280;6334;48.696;2.114;2022-09-03T16:30:36;99328.50;;;22.64;66.69
12536;BME280;6334;48.696;2.114;2022-09-03T16:38:46;99421.61;;;23.20;68.06
12536;BME280;6334;48.696;2.114;2022-09-03T16:41:23;99423.17;;;23.11;67.68
12536;BME280;6334;48.696;2.114;2022-09-03T16:46:59;99420.48;;;23.13;67.56
12536;BME280;6334;48.696;2.114;2022-09-03T16:49:38;99423.36;;;23.29;68.17
12536;BME280;6334;48.696;2.114;2022-09-03T16:55:12;99419.91;;;23.03;67.08
12536;BME280;6334;48.696;2.114;2022-09-03T16:58:04;99423.46;;;23.15;67.59
12536;BME280;6334;48.696;2.114;2022-09-03T17:01:02;99430.09;;;23.02;65.36
12536;BME280;6334;48.696;2.114;2022-09-03T17:09:10;99349.60;;;22.37;65.52
12536;BME280;6334;48.696;2.114;2022-09-03T17:11:45;99422.63;;;22.90;65.04
12536;BME280;6334;48.696;2.114;2022-09-03T17:17:03;99423.53;;;22.80;64.48